Zipporah — WDG3234 — position and weather

sailwx.info

Track history (hours):
 
Tides and Currents Weather Stations Pressure Air Temp Water Temp Dewpoint Dewpoint Depression Visibility Wind Speed Wind Dir Waves Ship Positions

Zipporah

Owner: Mann, Douglas S, Plymouth, MN. More information available from US FCC via Universal Licensing System and Coast Guard Vessel Documentation Center.

Last reported at 2018-Jan-25 11:25 UTC. Time now 2018-Feb-19 08:28 UTC.
Position N 27°51' W 015°18'.
Warning: this ship's position is 24 days out of date.

Type: Sailing vessel. MMSI: 367523920.

Date/timePositionNaut miles runAvg speedWind from/ knotsBaromVisibWave heightAir tempDewpointWater temp
2018-Jan-25 11:25N 27°51' W 015°18'4 8.2
2018-Jan-25 10:56N 27°55' W 015°19'4 7.6
2018-Jan-25 10:27N 27°59' W 015°20'3 6.2
2018-Jan-25 09:56N 28°02' W 015°21'3 5.1
2018-Jan-25 09:24N 28°04' W 015°22'3 5.8
2018-Jan-25 08:56N 28°06' W 015°24'2 3.3
2018-Jan-25 08:21N 28°08' W 015°26'0 0.0
2018-Jan-23 10:25N 28°08' W 015°26'2 4.3
2018-Jan-23 09:55N 28°08' W 015°23'2 4.9
2018-Jan-23 09:25N 28°11' W 015°23'2 4.9
2018-Jan-23 08:55N 28°13' W 015°23'2 5.7
2018-Jan-23 08:30N 28°16' W 015°23'3 5.7
2018-Jan-23 08:00N 28°19' W 015°24'3 6.1
2018-Jan-23 07:30N 28°22' W 015°24'3 6.3
2018-Jan-23 07:00N 28°25' W 015°25'3 6.0
2018-Jan-23 06:30N 28°28' W 015°26'3 6.3
2018-Jan-23 06:00N 28°31' W 015°26'3 5.5
2018-Jan-23 05:30N 28°34' W 015°27'  
Track history (hours):
 
Tides and Currents Weather Stations Pressure Air Temp Water Temp Dewpoint Dewpoint Depression Visibility Wind Speed Wind Dir Waves Ship Positions

Zipporah

Owner: Mann, Douglas S, Plymouth, MN. More information available from US FCC via Universal Licensing System and Coast Guard Vessel Documentation Center.

Last reported at 2018-Jan-25 11:25 UTC. Time now 2018-Feb-19 08:28 UTC.
Position N 27°51' W 015°18'.
Warning: this ship's position is 24 days out of date.

Type: Sailing vessel. MMSI: 367523920.

Date/timePositionNaut miles runAvg speedWind from/ knotsBaromVisibWave heightAir tempDewpointWater temp
2018-Jan-25 11:25N 27°51' W 015°18'4 8.2
2018-Jan-25 10:56N 27°55' W 015°19'4 7.6
2018-Jan-25 10:27N 27°59' W 015°20'3 6.2
2018-Jan-25 09:56N 28°02' W 015°21'3 5.1
2018-Jan-25 09:24N 28°04' W 015°22'3 5.8
2018-Jan-25 08:56N 28°06' W 015°24'2 3.3
2018-Jan-25 08:21N 28°08' W 015°26'0 0.0
2018-Jan-23 10:25N 28°08' W 015°26'2 4.3
2018-Jan-23 09:55N 28°08' W 015°23'2 4.9
2018-Jan-23 09:25N 28°11' W 015°23'2 4.9
2018-Jan-23 08:55N 28°13' W 015°23'2 5.7
2018-Jan-23 08:30N 28°16' W 015°23'3 5.7
2018-Jan-23 08:00N 28°19' W 015°24'3 6.1
2018-Jan-23 07:30N 28°22' W 015°24'3 6.3
2018-Jan-23 07:00N 28°25' W 015°25'3 6.0
2018-Jan-23 06:30N 28°28' W 015°26'3 6.3
2018-Jan-23 06:00N 28°31' W 015°26'3 5.5
2018-Jan-23 05:30N 28°34' W 015°27'  

Dump ship's entire track history